createdAt,value
2023-01-17T00:00:34.860Z,2.05
2023-01-17T00:03:01.776Z,5.35
2023-01-17T00:05:47.066Z,2.05
2023-01-17T00:08:32.483Z,2.83
2023-01-17T00:10:59.300Z,2.00
2023-01-17T00:13:25.997Z,3.85
2023-01-17T00:15:53.098Z,3.83
2023-01-17T00:18:19.854Z,2.22
2023-01-17T00:21:05.326Z,3.08
2023-01-17T00:23:50.567Z,3.60
2023-01-17T00:26:19.086Z,1.95
2023-01-17T00:28:47.840Z,1.63
2023-01-17T00:31:15.460Z,1.98
2023-01-17T00:33:42.317Z,2.78
2023-01-17T00:36:09.661Z,2.38
2023-01-17T00:38:38.041Z,2.97
2023-01-17T00:41:09.387Z,4.32
2023-01-17T00:43:55.235Z,3.50
2023-01-17T00:46:40.868Z,3.90
2023-01-17T00:49:26.313Z,3.75
2023-01-17T00:52:11.838Z,2.22
2023-01-17T00:54:57.445Z,4.57
2023-01-17T00:57:43.095Z,4.28
2023-01-17T01:00:29.025Z,4.05
2023-01-17T01:03:14.611Z,3.30
2023-01-17T01:05:59.899Z,3.15
2023-01-17T01:08:47.221Z,5.13
2023-01-17T01:11:35.265Z,6.25
2023-01-17T01:14:20.500Z,6.88
2023-01-17T01:17:05.746Z,2.38
2023-01-17T01:19:51.328Z,4.07
2023-01-17T01:22:36.817Z,3.88
2023-01-17T01:25:22.565Z,3.33
2023-01-17T01:28:08.241Z,3.05
2023-01-17T01:30:53.439Z,4.22
2023-01-17T01:33:20.163Z,3.08
2023-01-17T01:35:51.899Z,3.70
2023-01-17T01:38:20.216Z,4.72
2023-01-17T01:40:49.172Z,2.13
2023-01-17T01:43:18.341Z,3.58
2023-01-17T01:45:48.578Z,2.88
2023-01-17T01:48:20.495Z,3.58
2023-01-17T01:50:48.731Z,2.92
2023-01-17T01:53:16.001Z,4.38
2023-01-17T01:55:43.244Z,3.83
2023-01-17T01:58:24.381Z,4.13
2023-01-17T02:00:51.319Z,2.58
2023-01-17T02:03:22.167Z,3.60
2023-01-17T02:05:48.819Z,6.00
2023-01-17T02:08:17.631Z,5.82
2023-01-17T02:10:44.595Z,6.63
2023-01-17T02:13:13.016Z,4.55
2023-01-17T02:16:17.222Z,4.90
2023-01-17T02:18:53.879Z,5.60
2023-01-17T02:21:32.085Z,3.78
2023-01-17T02:24:17.323Z,2.30
2023-01-17T02:26:58.590Z,2.20
2023-01-17T02:29:46.626Z,2.90
2023-01-17T02:32:40.236Z,5.53
2023-01-17T02:35:28.219Z,3.30
2023-01-17T02:38:25.281Z,5.65
2023-01-17T02:41:07.699Z,3.72
2023-01-17T02:43:35.923Z,1.70
2023-01-17T02:46:02.835Z,2.95
2023-01-17T02:48:32.131Z,4.07
2023-01-17T02:51:10.585Z,3.78
2023-01-17T02:54:00.260Z,4.25
2023-01-17T02:57:10.739Z,4.57
2023-01-17T02:59:45.828Z,3.22
2023-01-17T03:02:38.351Z,4.22
2023-01-17T03:05:22.475Z,5.97
2023-01-17T03:07:50.502Z,3.60
2023-01-17T03:10:18.492Z,5.57
2023-01-17T03:12:45.311Z,2.85
2023-01-17T03:15:17.420Z,3.30
2023-01-17T03:17:49.942Z,6.30
2023-01-17T03:20:16.888Z,3.17
2023-01-17T03:22:43.535Z,4.90
2023-01-17T03:25:10.478Z,4.25
2023-01-17T03:27:37.181Z,5.28
2023-01-17T03:30:04.809Z,8.35
2023-01-17T03:32:31.508Z,5.13
2023-01-17T03:34:58.234Z,2.88
2023-01-17T03:37:24.956Z,4.25
2023-01-17T03:39:51.640Z,5.85
2023-01-17T03:42:18.389Z,2.97
2023-01-17T03:44:45.055Z,5.07
2023-01-17T03:47:12.282Z,3.63
2023-01-17T03:49:39.834Z,6.38
2023-01-17T03:52:07.176Z,4.05
2023-01-17T03:54:33.882Z,3.38
2023-01-17T03:57:00.695Z,12.50
2023-01-17T03:59:27.484Z,4.05
2023-01-17T04:01:54.227Z,4.68
2023-01-17T04:04:21.002Z,3.50
2023-01-17T04:06:48.073Z,3.22
2023-01-17T04:09:14.808Z,2.78
2023-01-17T04:11:41.531Z,2.70
2023-01-17T04:14:08.261Z,2.50
2023-01-17T04:16:35.465Z,2.65
2023-01-17T04:19:02.216Z,1.65
2023-01-17T04:21:28.850Z,2.63
2023-01-17T04:23:55.474Z,1.65
2023-01-17T04:26:22.137Z,2.97
2023-01-17T04:28:49.367Z,3.78
2023-01-17T04:31:17.017Z,2.17
2023-01-17T04:33:49.655Z,3.47
2023-01-17T04:36:16.319Z,2.50
2023-01-17T04:38:42.956Z,6.07
2023-01-17T04:41:09.726Z,1.13
2023-01-17T04:43:36.597Z,3.55
2023-01-17T04:46:04.965Z,2.55
2023-01-17T04:48:31.726Z,1.88
2023-01-17T04:51:02.502Z,3.22
2023-01-17T04:53:29.325Z,5.18
2023-01-17T04:55:56.027Z,2.20
2023-01-17T04:58:22.805Z,5.32
2023-01-17T05:00:51.047Z,5.30
2023-01-17T05:03:18.995Z,4.57
2023-01-17T05:05:46.032Z,5.07
2023-01-17T05:08:15.922Z,4.28
2023-01-17T05:10:42.612Z,2.97
2023-01-17T05:13:09.313Z,3.42
2023-01-17T05:15:36.362Z,4.65
2023-01-17T05:18:07.236Z,3.58
2023-01-17T05:20:34.900Z,4.28
2023-01-17T05:23:01.596Z,5.13
2023-01-17T05:25:29.884Z,3.70
2023-01-17T05:27:57.313Z,4.90
2023-01-17T05:30:24.003Z,4.05
2023-01-17T05:32:52.343Z,6.13
2023-01-17T05:35:20.538Z,10.43
2023-01-17T05:37:49.209Z,6.05
2023-01-17T05:40:16.738Z,2.70
2023-01-17T05:42:47.304Z,4.40
2023-01-17T05:45:16.895Z,2.95
2023-01-17T05:47:44.746Z,3.28
2023-01-17T05:50:12.950Z,4.88
2023-01-17T05:52:40.108Z,5.07
2023-01-17T05:55:07.490Z,5.00
2023-01-17T05:57:35.045Z,5.65
2023-01-17T06:00:01.871Z,3.50
2023-01-17T06:02:31.611Z,4.25
2023-01-17T06:04:58.279Z,2.70
2023-01-17T06:07:24.960Z,3.58
2023-01-17T06:09:51.704Z,4.82
2023-01-17T06:12:22.146Z,3.78
2023-01-17T06:14:48.860Z,3.42
2023-01-17T06:17:15.535Z,5.00
2023-01-17T06:19:42.208Z,4.15
2023-01-17T06:22:09.044Z,5.47
2023-01-17T06:24:35.817Z,5.88
2023-01-17T06:27:02.523Z,4.85
2023-01-17T06:29:29.217Z,2.75
2023-01-17T06:31:55.923Z,6.82
2023-01-17T06:34:22.655Z,5.10
2023-01-17T06:36:49.343Z,3.05
2023-01-17T06:39:16.007Z,4.30
2023-01-17T06:41:43.090Z,3.75
2023-01-17T06:44:10.107Z,8.23
2023-01-17T06:46:36.960Z,5.50
2023-01-17T06:49:03.716Z,6.07
2023-01-17T06:51:30.391Z,4.75
2023-01-17T06:53:57.196Z,3.30
2023-01-17T06:56:23.946Z,4.25
2023-01-17T06:58:51.384Z,3.47
2023-01-17T07:01:18.809Z,7.15
2023-01-17T07:03:45.585Z,2.75
2023-01-17T07:06:12.399Z,7.72
2023-01-17T07:08:39.047Z,3.35
2023-01-17T07:11:10.261Z,3.25
2023-01-17T07:13:38.100Z,2.85
2023-01-17T07:16:06.318Z,4.35
2023-01-17T07:18:34.065Z,3.97
2023-01-17T07:21:00.827Z,7.53
2023-01-17T07:23:27.507Z,8.70
2023-01-17T07:25:58.946Z,6.60
2023-01-17T07:28:26.971Z,3.50
2023-01-17T07:30:54.202Z,4.60
2023-01-17T07:33:21.158Z,4.20
2023-01-17T07:35:47.906Z,3.83
2023-01-17T07:38:16.793Z,4.40
2023-01-17T07:40:44.192Z,5.28
2023-01-17T07:43:14.218Z,6.28
2023-01-17T07:45:46.562Z,9.48
2023-01-17T07:48:13.360Z,5.63
2023-01-17T07:50:40.251Z,7.30
2023-01-17T07:53:06.927Z,6.53
2023-01-17T07:55:33.693Z,7.75
2023-01-17T07:58:02.782Z,7.68
2023-01-17T08:00:29.894Z,7.28
2023-01-17T08:03:01.095Z,8.48
2023-01-17T08:05:28.433Z,8.98
2023-01-17T08:07:55.102Z,10.35
2023-01-17T08:10:22.817Z,7.88
2023-01-17T08:12:50.191Z,11.50
2023-01-17T08:15:17.953Z,10.48
2023-01-17T08:17:48.374Z,12.90
2023-01-17T08:20:16.277Z,9.60
2023-01-17T08:22:43.049Z,8.80
2023-01-17T08:25:09.836Z,7.20
2023-01-17T08:27:36.622Z,10.55
2023-01-17T08:30:03.907Z,10.93
2023-01-17T08:32:30.738Z,12.25
2023-01-17T08:34:57.419Z,9.73
2023-01-17T08:37:24.395Z,9.68
2023-01-17T08:39:51.129Z,9.00
2023-01-17T08:42:17.833Z,13.23
2023-01-17T08:44:44.585Z,10.00
2023-01-17T08:47:11.300Z,12.77
2023-01-17T08:49:37.992Z,10.77
2023-01-17T08:52:07.367Z,11.10
2023-01-17T08:54:34.068Z,8.93
2023-01-17T08:57:03.261Z,11.43
2023-01-17T08:59:30.002Z,12.63
2023-01-17T09:01:58.232Z,13.00
2023-01-17T09:04:25.187Z,13.15
2023-01-17T09:06:51.969Z,12.00
2023-01-17T09:09:18.742Z,13.25
2023-01-17T09:11:45.627Z,10.38
2023-01-17T09:14:13.129Z,12.52
2023-01-17T09:16:39.921Z,11.40
2023-01-17T09:19:06.719Z,11.23
2023-01-17T09:21:33.526Z,11.82
2023-01-17T09:24:00.341Z,10.43
2023-01-17T09:26:29.428Z,13.15
2023-01-17T09:28:56.263Z,15.98
2023-01-17T09:31:24.461Z,13.65
2023-01-17T09:33:51.860Z,9.23
2023-01-17T09:36:18.780Z,10.02
2023-01-17T09:38:45.823Z,9.82
2023-01-17T09:41:21.990Z,12.18
2023-01-17T09:44:18.032Z,10.45
2023-01-17T09:46:46.493Z,13.25
2023-01-17T09:49:35.776Z,12.20
2023-01-17T09:52:03.630Z,15.82
2023-01-17T09:54:41.441Z,17.75
2023-01-17T09:57:54.228Z,15.57
2023-01-17T10:00:39.283Z,17.17
2023-01-17T10:03:39.945Z,10.10
2023-01-17T10:06:17.444Z,12.35
2023-01-17T10:08:50.138Z,13.73
2023-01-17T10:11:29.189Z,14.27
2023-01-17T10:14:32.985Z,11.48
2023-01-17T10:17:08.656Z,11.18
2023-01-17T10:20:04.328Z,17.48
2023-01-17T10:22:31.165Z,12.68
2023-01-17T10:25:33.622Z,10.50
2023-01-17T10:28:05.075Z,13.93
2023-01-17T10:31:00.898Z,14.10
2023-01-17T10:33:30.198Z,10.07
2023-01-17T10:35:59.140Z,12.38
2023-01-17T10:38:30.300Z,9.63
2023-01-17T10:41:00.116Z,8.85
2023-01-17T10:43:39.375Z,8.48
2023-01-17T10:46:12.523Z,8.57
2023-01-17T10:48:45.882Z,8.93
2023-01-17T10:51:35.140Z,10.65
2023-01-17T10:54:12.368Z,10.05
2023-01-17T10:56:40.677Z,11.63
2023-01-17T10:59:19.021Z,11.10
2023-01-17T11:01:45.971Z,8.82
2023-01-17T11:04:22.033Z,11.93
2023-01-17T11:07:20.378Z,12.50
2023-01-17T11:09:52.248Z,13.95
2023-01-17T11:12:29.280Z,11.85
2023-01-17T11:15:01.839Z,15.88
2023-01-17T11:17:29.390Z,11.23
2023-01-17T11:20:20.188Z,10.98
2023-01-17T11:23:02.738Z,12.15
2023-01-17T11:25:32.952Z,16.77
2023-01-17T11:28:25.996Z,12.85
2023-01-17T11:30:55.524Z,14.07
2023-01-17T11:33:53.859Z,15.30
2023-01-17T11:36:28.793Z,11.10
2023-01-17T11:38:58.849Z,10.88
2023-01-17T11:41:28.142Z,11.73
2023-01-17T11:43:57.513Z,14.07
2023-01-17T11:46:25.029Z,9.00
2023-01-17T11:48:59.635Z,13.02
2023-01-17T11:51:30.190Z,8.07
2023-01-17T11:54:08.854Z,10.27
2023-01-17T11:56:36.751Z,12.15
2023-01-17T11:59:21.688Z,9.85
2023-01-17T12:01:58.017Z,8.25
2023-01-17T12:04:31.720Z,9.55
2023-01-17T12:07:19.657Z,9.75
2023-01-17T12:09:49.032Z,5.43
2023-01-17T12:13:11.187Z,6.13
2023-01-17T12:15:55.924Z,6.82
2023-01-17T12:18:32.269Z,6.70
2023-01-17T12:21:10.541Z,5.22
2023-01-17T12:23:51.732Z,6.35
2023-01-17T12:26:37.115Z,6.47
2023-01-17T12:29:37.111Z,7.72
2023-01-17T12:32:12.462Z,8.10
2023-01-17T12:34:47.083Z,4.85
2023-01-17T12:37:24.511Z,5.35
2023-01-17T12:39:57.277Z,5.20
2023-01-17T12:42:33.180Z,6.05
2023-01-17T12:45:08.043Z,5.45
2023-01-17T12:47:38.810Z,9.48
2023-01-17T12:50:15.437Z,5.20
2023-01-17T12:52:44.760Z,6.95
2023-01-17T12:55:22.369Z,7.28
2023-01-17T12:57:57.082Z,6.95
2023-01-17T13:00:26.728Z,4.38
2023-01-17T13:02:58.934Z,4.45
2023-01-17T13:05:32.461Z,5.57
2023-01-17T13:08:06.827Z,9.85
2023-01-17T13:10:39.678Z,8.40
2023-01-17T13:13:20.068Z,5.22
2023-01-17T13:15:49.258Z,6.88
2023-01-17T13:18:22.804Z,19.25
2023-01-17T13:21:06.025Z,5.03
2023-01-17T13:23:59.037Z,8.95
2023-01-17T13:26:47.573Z,5.85
2023-01-17T13:29:32.550Z,5.93
2023-01-17T13:32:27.589Z,6.90
2023-01-17T13:35:22.983Z,5.40
2023-01-17T13:38:04.383Z,5.90
2023-01-17T13:40:34.904Z,6.22
2023-01-17T13:43:05.637Z,5.90
2023-01-17T13:45:36.982Z,5.35
2023-01-17T13:48:12.782Z,5.90
2023-01-17T13:50:50.892Z,5.68
2023-01-17T13:53:35.630Z,4.28
2023-01-17T13:56:12.573Z,4.25
2023-01-17T13:58:50.488Z,4.72
2023-01-17T14:01:23.518Z,11.70
2023-01-17T14:03:50.361Z,4.63
2023-01-17T14:06:35.825Z,5.38
2023-01-17T14:09:13.386Z,4.85
2023-01-17T14:11:52.071Z,7.78
2023-01-17T14:14:36.932Z,5.03
2023-01-17T14:17:44.957Z,3.60
2023-01-17T14:20:12.498Z,5.90
2023-01-17T14:22:41.616Z,5.53
2023-01-17T14:25:18.498Z,3.72
2023-01-17T14:27:48.300Z,3.95
2023-01-17T14:30:18.038Z,12.70
2023-01-17T14:33:05.900Z,77.15
2023-01-17T14:35:36.864Z,4.53
2023-01-17T14:38:18.773Z,5.68
2023-01-17T14:40:51.149Z,6.15
2023-01-17T14:43:25.891Z,21.07
2023-01-17T14:46:00.480Z,11.98
2023-01-17T14:48:28.295Z,6.43
2023-01-17T14:50:57.400Z,7.85
2023-01-17T14:53:29.006Z,8.70
2023-01-17T14:56:01.675Z,7.10
2023-01-17T14:58:30.776Z,5.82
2023-01-17T15:01:00.324Z,5.07
2023-01-17T15:03:28.066Z,6.50
2023-01-17T15:05:55.541Z,8.07
2023-01-17T15:08:24.988Z,5.18
2023-01-17T15:10:58.612Z,6.45
2023-01-17T15:13:43.862Z,6.88
2023-01-17T15:16:29.639Z,6.78
2023-01-17T15:18:57.297Z,8.63
2023-01-17T15:21:29.876Z,10.57
2023-01-17T15:23:58.286Z,5.82
2023-01-17T15:26:27.332Z,7.40
2023-01-17T15:29:04.626Z,8.52
2023-01-17T15:31:41.342Z,8.77
2023-01-17T15:34:13.909Z,8.85
2023-01-17T15:36:40.797Z,7.32
2023-01-17T15:39:22.183Z,10.02
2023-01-17T15:41:52.141Z,6.68
2023-01-17T15:44:23.713Z,5.85
2023-01-17T15:46:50.499Z,11.23
2023-01-17T15:49:22.405Z,11.18
2023-01-17T15:51:53.304Z,5.90
2023-01-17T15:54:34.574Z,8.43
2023-01-17T15:57:05.346Z,10.20
2023-01-17T15:59:43.486Z,7.40
2023-01-17T16:02:32.805Z,11.45
2023-01-17T16:05:01.415Z,6.38
2023-01-17T16:07:35.611Z,9.80
2023-01-17T16:10:08.063Z,8.15
2023-01-17T16:12:34.750Z,12.90
2023-01-17T16:15:12.477Z,21.20
2023-01-17T16:17:42.271Z,12.85
2023-01-17T16:20:15.762Z,9.35
2023-01-17T16:22:43.820Z,12.80
2023-01-17T16:25:21.812Z,8.38
2023-01-17T16:27:49.447Z,15.07
2023-01-17T16:30:18.543Z,11.68
2023-01-17T16:32:49.565Z,9.50
2023-01-17T16:35:21.173Z,13.05
2023-01-17T16:37:55.903Z,10.00
2023-01-17T16:40:25.292Z,14.38
2023-01-17T16:42:52.078Z,11.75
2023-01-17T16:45:19.023Z,10.13
2023-01-17T16:47:47.328Z,10.95
2023-01-17T16:50:16.380Z,6.95
2023-01-17T16:52:43.122Z,10.15
2023-01-17T16:55:15.495Z,8.32
2023-01-17T16:57:42.511Z,7.83
2023-01-17T17:00:11.951Z,9.82
2023-01-17T17:02:39.469Z,9.32
2023-01-17T17:05:07.481Z,9.48
2023-01-17T17:07:36.677Z,9.98
2023-01-17T17:10:03.728Z,10.88
2023-01-17T17:12:31.942Z,10.82
2023-01-17T17:14:58.686Z,10.40
2023-01-17T17:17:25.446Z,11.82
2023-01-17T17:19:52.140Z,8.73
2023-01-17T17:22:18.823Z,11.05
2023-01-17T17:24:45.499Z,11.10
2023-01-17T17:27:12.349Z,10.75
2023-01-17T17:29:41.552Z,13.93
2023-01-17T17:32:11.432Z,10.18
2023-01-17T17:34:38.589Z,10.95
2023-01-17T17:37:05.269Z,14.13
2023-01-17T17:39:32.141Z,14.23
2023-01-17T17:41:58.886Z,13.85
2023-01-17T17:44:25.668Z,17.73
2023-01-17T17:46:52.373Z,13.52
2023-01-17T17:49:20.374Z,13.70
2023-01-17T17:51:47.905Z,12.40
2023-01-17T17:54:15.510Z,11.95
2023-01-17T17:56:46.439Z,10.70
2023-01-17T17:59:14.831Z,9.52
2023-01-17T18:01:41.721Z,15.07
2023-01-17T18:04:09.040Z,16.85
2023-01-17T18:06:36.267Z,17.40
2023-01-17T18:09:03.346Z,15.68
2023-01-17T18:11:30.568Z,17.73
2023-01-17T18:14:00.071Z,19.02
2023-01-17T18:16:32.663Z,11.95
2023-01-17T18:18:59.615Z,16.95
2023-01-17T18:21:29.350Z,12.50
2023-01-17T18:23:58.789Z,13.82
2023-01-17T18:26:30.879Z,16.73
2023-01-17T18:28:58.884Z,12.48
2023-01-17T18:31:27.395Z,15.00
2023-01-17T18:33:55.227Z,20.70
2023-01-17T18:36:25.848Z,14.45
2023-01-17T18:38:52.642Z,11.60
2023-01-17T18:41:25.770Z,18.90
2023-01-17T18:43:54.162Z,11.35
2023-01-17T18:46:21.115Z,11.20
2023-01-17T18:48:48.028Z,16.67
2023-01-17T18:51:17.063Z,15.93
2023-01-17T18:53:44.668Z,12.02
2023-01-17T18:56:16.802Z,10.77
2023-01-17T18:58:45.191Z,15.32
2023-01-17T19:01:17.271Z,15.98
2023-01-17T19:03:46.375Z,13.38
2023-01-17T19:06:17.140Z,19.35
2023-01-17T19:08:43.929Z,13.88
2023-01-17T19:11:11.198Z,13.68
2023-01-17T19:13:38.723Z,14.75
2023-01-17T19:16:07.850Z,15.45
2023-01-17T19:18:35.205Z,15.13
2023-01-17T19:21:12.889Z,12.40
2023-01-17T19:23:39.855Z,26.25
2023-01-17T19:26:08.316Z,13.23
2023-01-17T19:28:42.890Z,16.77
2023-01-17T19:31:13.121Z,12.15
2023-01-17T19:33:42.128Z,12.85
2023-01-17T19:36:11.817Z,16.42
2023-01-17T19:38:38.598Z,11.10
2023-01-17T19:41:10.153Z,13.10
2023-01-17T19:43:37.303Z,10.88
2023-01-17T19:46:04.359Z,10.13
2023-01-17T19:48:31.512Z,12.68
2023-01-17T19:51:07.039Z,14.68
2023-01-17T19:53:35.859Z,15.07
2023-01-17T19:56:14.501Z,15.52
2023-01-17T19:58:42.016Z,15.82
2023-01-17T20:01:11.281Z,15.80
2023-01-17T20:03:38.594Z,17.05
2023-01-17T20:06:06.384Z,19.10
2023-01-17T20:08:34.206Z,11.57
2023-01-17T20:11:15.983Z,13.85
2023-01-17T20:13:42.649Z,14.30
2023-01-17T20:16:11.756Z,21.30
2023-01-17T20:18:38.649Z,19.30
2023-01-17T20:21:07.459Z,17.95
2023-01-17T20:23:38.817Z,24.63
2023-01-17T20:26:06.093Z,24.80
2023-01-17T20:28:34.255Z,18.00
2023-01-17T20:31:05.856Z,21.90
2023-01-17T20:33:33.593Z,18.92
2023-01-17T20:36:10.411Z,19.48
2023-01-17T20:38:44.732Z,17.48
2023-01-17T20:41:13.829Z,19.52
2023-01-17T20:43:42.129Z,19.52
2023-01-17T20:46:09.816Z,24.25
2023-01-17T20:48:36.698Z,23.15
2023-01-17T20:51:10.375Z,24.08
2023-01-17T20:53:38.884Z,25.73
2023-01-17T20:56:05.968Z,18.17
2023-01-17T20:58:33.963Z,15.63
2023-01-17T21:01:01.309Z,13.77
2023-01-17T21:03:33.339Z,15.48
2023-01-17T21:06:05.132Z,21.73
2023-01-17T21:08:33.592Z,16.52
2023-01-17T21:11:00.753Z,15.55
2023-01-17T21:13:27.665Z,14.50
2023-01-17T21:15:54.420Z,13.90
2023-01-17T21:18:22.645Z,17.58
2023-01-17T21:20:49.490Z,18.17
2023-01-17T21:23:19.053Z,21.40
2023-01-17T21:25:57.802Z,26.88
2023-01-17T21:28:27.259Z,24.48
2023-01-17T21:30:54.380Z,17.77
2023-01-17T21:33:22.443Z,22.70
2023-01-17T21:35:49.142Z,22.58
2023-01-17T21:38:15.919Z,24.48
2023-01-17T21:40:43.348Z,25.40
2023-01-17T21:43:10.598Z,25.65
2023-01-17T21:45:38.409Z,27.60
2023-01-17T21:48:12.219Z,25.85
2023-01-17T21:50:39.208Z,23.73
2023-01-17T21:53:06.439Z,26.48
2023-01-17T21:55:51.701Z,24.25
2023-01-17T21:58:36.658Z,26.10
2023-01-17T22:01:18.012Z,23.67
2023-01-17T22:03:48.878Z,28.45
2023-01-17T22:06:15.645Z,22.15
2023-01-17T22:08:42.551Z,26.48
2023-01-17T22:11:11.978Z,28.60
2023-01-17T22:13:40.156Z,22.63
2023-01-17T22:16:10.257Z,32.47
2023-01-17T22:18:38.988Z,24.17
2023-01-17T22:21:14.553Z,25.23
2023-01-17T22:23:55.382Z,27.42
2023-01-17T22:26:24.374Z,27.55
2023-01-17T22:28:51.452Z,29.27
2023-01-17T22:31:23.338Z,36.15
2023-01-17T22:33:58.026Z,29.00
2023-01-17T22:36:25.126Z,25.15
2023-01-17T22:38:51.920Z,28.27
2023-01-17T22:41:21.555Z,22.58
2023-01-17T22:43:50.067Z,25.08
2023-01-17T22:46:20.367Z,26.73
2023-01-17T22:48:47.086Z,25.73
2023-01-17T22:51:15.722Z,21.40
2023-01-17T22:53:51.166Z,23.90
2023-01-17T22:56:23.923Z,22.85
2023-01-17T22:58:50.900Z,21.38
2023-01-17T23:01:25.743Z,24.17
2023-01-17T23:03:57.938Z,24.92
2023-01-17T23:06:30.306Z,24.55
2023-01-17T23:08:59.582Z,25.27
2023-01-17T23:11:44.964Z,28.63
2023-01-17T23:14:15.714Z,24.15
2023-01-17T23:17:07.308Z,28.02
2023-01-17T23:19:36.264Z,25.33
2023-01-17T23:24:54.105Z,25.52
2023-01-17T23:27:42.715Z,25.45
2023-01-17T23:30:15.167Z,32.97
2023-01-17T23:32:47.680Z,29.70
2023-01-17T23:35:15.550Z,27.00
2023-01-17T23:38:01.698Z,23.58
2023-01-17T23:40:30.231Z,24.75
2023-01-17T23:43:15.579Z,25.83
2023-01-17T23:45:42.430Z,29.50
2023-01-17T23:48:09.694Z,24.17
2023-01-17T23:50:38.227Z,28.85
2023-01-17T23:53:06.959Z,28.77
2023-01-17T23:55:38.834Z,36.85
2023-01-17T23:58:07.528Z,21.38
